createdAt,value
2023-02-12T00:01:17.974Z,19.17
2023-02-12T00:05:23.353Z,19.03
2023-02-12T00:09:26.273Z,19.03
2023-02-12T00:13:32.096Z,18.40
2023-02-12T00:17:35.291Z,18.77
2023-02-12T00:21:39.638Z,19.97
2023-02-12T00:25:43.771Z,18.30
2023-02-12T00:29:46.724Z,17.83
2023-02-12T00:33:49.815Z,19.37
2023-02-12T00:37:54.100Z,20.10
2023-02-12T00:41:57.329Z,19.03
2023-02-12T00:46:00.887Z,18.70
2023-02-12T00:50:04.590Z,17.80
2023-02-12T00:54:08.859Z,19.73
2023-02-12T00:58:11.993Z,16.57
2023-02-12T01:02:15.011Z,21.00
2023-02-12T01:06:18.038Z,18.03
2023-02-12T01:10:26.276Z,19.13
2023-02-12T01:14:29.644Z,18.43
2023-02-12T01:18:33.284Z,19.63
2023-02-12T01:22:36.651Z,20.87
2023-02-12T01:26:41.115Z,20.10
2023-02-12T01:30:44.310Z,17.60
2023-02-12T01:34:47.237Z,18.03
2023-02-12T01:38:51.774Z,18.17
2023-02-12T01:42:57.050Z,20.07
2023-02-12T01:47:03.265Z,18.60
2023-02-12T01:51:08.472Z,19.43
2023-02-12T01:55:13.008Z,19.40
2023-02-12T01:59:19.721Z,19.13
2023-02-12T02:03:22.917Z,18.40
2023-02-12T02:07:26.311Z,18.03
2023-02-12T02:11:47.271Z,20.20
2023-02-12T02:15:57.855Z,20.80
2023-02-12T02:20:40.175Z,18.13
2023-02-12T02:25:09.880Z,20.57
2023-02-12T02:29:28.973Z,19.37
2023-02-12T02:33:42.845Z,16.87
2023-02-12T02:37:51.278Z,20.13
2023-02-12T02:42:11.478Z,19.60
2023-02-12T02:46:21.636Z,19.20
2023-02-12T02:50:30.336Z,19.83
2023-02-12T02:54:38.628Z,19.07
2023-02-12T02:58:45.334Z,18.63
2023-02-12T03:02:53.382Z,19.93
2023-02-12T03:07:03.275Z,20.27
2023-02-12T03:11:11.965Z,20.40
2023-02-12T03:15:22.260Z,19.07
2023-02-12T03:19:30.590Z,19.33
2023-02-12T03:23:40.640Z,20.00
2023-02-12T03:27:48.129Z,20.10
2023-02-12T03:32:04.862Z,20.83
2023-02-12T03:36:17.832Z,19.17
2023-02-12T03:40:29.303Z,19.80
2023-02-12T03:44:48.895Z,20.27
2023-02-12T03:49:00.398Z,19.37
2023-02-12T03:53:03.916Z,21.90
2023-02-12T03:57:11.496Z,20.63
2023-02-12T04:01:15.044Z,20.20
2023-02-12T04:05:20.581Z,19.93
2023-02-12T04:09:25.746Z,19.70
2023-02-12T04:13:40.873Z,22.20
2023-02-12T04:17:51.156Z,22.10
2023-02-12T04:22:13.054Z,21.37
2023-02-12T04:26:24.820Z,21.40
2023-02-12T04:30:36.510Z,22.27
2023-02-12T04:34:48.370Z,22.10
2023-02-12T04:38:56.221Z,22.53
2023-02-12T04:42:59.179Z,22.53
2023-02-12T04:47:03.817Z,22.90
2023-02-12T04:51:06.921Z,22.80
2023-02-12T04:55:09.963Z,23.10
2023-02-12T04:59:13.041Z,24.23
2023-02-12T05:03:17.618Z,23.37
2023-02-12T05:07:20.752Z,26.07
2023-02-12T05:11:24.214Z,24.33
2023-02-12T05:15:27.479Z,24.40
2023-02-12T05:19:32.288Z,25.83
2023-02-12T05:23:37.161Z,25.13
2023-02-12T05:27:42.186Z,23.53
2023-02-12T05:31:45.829Z,22.50
2023-02-12T05:35:51.102Z,25.23
2023-02-12T05:39:54.523Z,26.07
2023-02-12T05:43:57.802Z,23.20
2023-02-12T05:48:00.837Z,27.03
2023-02-12T05:52:06.080Z,27.07
2023-02-12T05:56:11.192Z,27.93
2023-02-12T06:00:15.382Z,24.53
2023-02-12T06:04:20.576Z,27.57
2023-02-12T06:08:25.186Z,27.17
2023-02-12T06:12:28.059Z,26.13
2023-02-12T06:16:31.213Z,29.17
2023-02-12T06:20:34.292Z,25.63
2023-02-12T06:24:39.627Z,27.93
2023-02-12T06:28:42.970Z,24.37
2023-02-12T06:32:50.006Z,28.03
2023-02-12T06:36:53.326Z,27.00
2023-02-12T06:40:58.366Z,37.60
2023-02-12T06:45:03.600Z,30.37
2023-02-12T06:49:07.016Z,32.33
2023-02-12T06:53:09.988Z,29.77
2023-02-12T06:57:14.321Z,26.80
2023-02-12T07:01:19.176Z,29.80
2023-02-12T07:05:22.409Z,29.60
2023-02-12T07:09:25.345Z,31.03
2023-02-12T07:13:30.446Z,25.13
2023-02-12T07:17:33.487Z,28.70
2023-02-12T07:21:37.124Z,26.93
2023-02-12T07:25:40.405Z,28.37
2023-02-12T07:29:44.737Z,34.33
2023-02-12T07:33:48.457Z,32.10
2023-02-12T07:37:51.529Z,34.33
2023-02-12T07:41:54.579Z,35.83
2023-02-12T07:46:07.440Z,31.80
2023-02-12T07:50:11.294Z,30.03
2023-02-12T07:54:14.834Z,31.40
2023-02-12T07:58:18.160Z,31.70
2023-02-12T08:02:25.539Z,31.27
2023-02-12T08:06:30.166Z,32.77
2023-02-12T08:10:33.077Z,35.13
2023-02-12T08:14:36.924Z,32.00
2023-02-12T08:18:41.990Z,36.53
2023-02-12T08:22:45.035Z,30.53
2023-02-12T08:26:48.047Z,32.67
2023-02-12T08:30:51.098Z,36.83
2023-02-12T08:34:56.919Z,34.13
2023-02-12T08:39:00.142Z,32.43
2023-02-12T08:43:03.727Z,34.63
2023-02-12T08:47:07.210Z,29.93
2023-02-12T08:51:13.372Z,32.07
2023-02-12T08:55:16.540Z,32.87
2023-02-12T08:59:19.664Z,29.40
2023-02-12T09:03:24.930Z,32.60
2023-02-12T09:07:29.779Z,31.43
2023-02-12T09:11:35.512Z,31.73
2023-02-12T09:15:39.157Z,30.00
2023-02-12T09:19:42.259Z,30.60
2023-02-12T09:23:47.425Z,31.90
2023-02-12T09:27:51.141Z,33.00
2023-02-12T09:31:54.352Z,32.83
2023-02-12T09:36:02.079Z,29.87
2023-02-12T09:40:07.842Z,31.60
2023-02-12T09:44:18.545Z,33.07
2023-02-12T09:48:48.974Z,27.13
2023-02-12T09:52:53.204Z,26.73
2023-02-12T09:57:01.914Z,25.83
2023-02-12T10:01:13.611Z,26.57
2023-02-12T10:05:21.592Z,22.87
2023-02-12T10:09:45.598Z,24.60
2023-02-12T10:13:59.292Z,24.33
2023-02-12T10:18:17.197Z,22.97
2023-02-12T10:22:27.997Z,23.57
2023-02-12T10:26:32.956Z,22.80
2023-02-12T10:30:44.015Z,24.03
2023-02-12T10:34:49.626Z,24.83
2023-02-12T10:38:59.370Z,25.63
2023-02-12T10:43:03.550Z,23.17
2023-02-12T10:47:08.642Z,25.23
2023-02-12T10:51:30.930Z,24.20
2023-02-12T10:55:36.805Z,23.93
2023-02-12T10:59:40.333Z,23.67
2023-02-12T11:03:44.829Z,23.73
2023-02-12T11:07:50.627Z,23.20
2023-02-12T11:11:53.427Z,20.37
2023-02-12T11:15:56.692Z,22.30
2023-02-12T11:20:24.947Z,21.10
2023-02-12T11:24:31.868Z,21.37
2023-02-12T11:28:37.208Z,20.07
2023-02-12T11:32:40.786Z,20.43
2023-02-12T11:36:46.950Z,22.07
2023-02-12T11:40:50.452Z,19.87
2023-02-12T11:44:55.998Z,18.40
2023-02-12T11:49:00.810Z,19.03
2023-02-12T11:53:09.434Z,18.50
2023-02-12T11:57:36.818Z,18.77
2023-02-12T12:01:41.774Z,17.03
2023-02-12T12:05:49.286Z,19.40
2023-02-12T12:10:01.281Z,16.80
2023-02-12T12:14:10.539Z,18.10
2023-02-12T12:18:44.333Z,16.03
2023-02-12T12:22:55.252Z,14.40
2023-02-12T12:27:14.195Z,24.10
2023-02-12T12:31:21.073Z,15.00
2023-02-12T12:35:37.513Z,12.83
2023-02-12T12:39:54.898Z,12.37
2023-02-12T12:44:16.719Z,13.73
2023-02-12T12:48:34.771Z,15.07
2023-02-12T12:53:01.677Z,13.90
2023-02-12T12:57:11.625Z,12.57
2023-02-12T13:01:38.606Z,12.00
2023-02-12T13:06:27.598Z,13.27
2023-02-12T13:10:36.831Z,13.17
2023-02-12T13:14:48.397Z,13.80
2023-02-12T13:19:00.688Z,12.47
2023-02-12T13:23:10.597Z,12.37
2023-02-12T13:27:17.737Z,12.60
2023-02-12T13:31:32.961Z,11.70
2023-02-12T13:35:43.464Z,10.83
2023-02-12T13:39:50.299Z,8.27
2023-02-12T13:44:11.840Z,11.00
2023-02-12T13:48:45.052Z,11.57
2023-02-12T13:52:53.932Z,11.17
2023-02-12T13:56:59.888Z,11.23
2023-02-12T14:01:04.934Z,12.97
2023-02-12T14:05:18.787Z,11.17
2023-02-12T14:09:29.941Z,11.60
2023-02-12T14:13:37.832Z,10.57
2023-02-12T14:17:52.899Z,12.17
2023-02-12T14:21:56.135Z,11.50
2023-02-12T14:26:04.945Z,12.60
2023-02-12T14:30:28.910Z,11.13
2023-02-12T14:34:40.148Z,10.67
2023-02-12T14:39:02.688Z,11.20
2023-02-12T14:43:26.782Z,11.73
2023-02-12T14:47:53.672Z,10.97
2023-02-12T14:52:01.498Z,12.67
2023-02-12T14:56:09.306Z,10.70
2023-02-12T15:00:26.485Z,11.93
2023-02-12T15:04:33.267Z,12.30
2023-02-12T15:08:45.949Z,11.87
2023-02-12T15:12:55.841Z,11.33
2023-02-12T15:17:10.007Z,12.63
2023-02-12T15:21:20.964Z,11.60
2023-02-12T15:25:26.798Z,11.30
2023-02-12T15:29:33.070Z,12.03
2023-02-12T15:33:42.818Z,12.07
2023-02-12T15:37:48.078Z,12.50
2023-02-12T15:41:52.181Z,16.33
2023-02-12T15:45:55.568Z,17.30
2023-02-12T15:50:01.752Z,16.43
2023-02-12T15:54:07.990Z,15.37
2023-02-12T15:58:22.526Z,14.20
2023-02-12T16:02:28.339Z,13.53
2023-02-12T16:06:34.701Z,14.17
2023-02-12T16:10:43.610Z,14.97
2023-02-12T16:14:49.892Z,16.13
2023-02-12T16:19:18.542Z,13.33
2023-02-12T16:23:23.726Z,13.80
2023-02-12T16:27:30.205Z,12.80
2023-02-12T16:31:33.343Z,13.40
2023-02-12T16:35:36.720Z,16.07
2023-02-12T16:40:21.324Z,22.40
2023-02-12T16:44:34.607Z,21.27
2023-02-12T16:48:42.521Z,18.63
2023-02-12T16:52:45.686Z,18.23
2023-02-12T16:56:49.345Z,14.73
2023-02-12T17:00:54.689Z,14.80
2023-02-12T17:05:00.857Z,13.90
2023-02-12T17:09:04.796Z,13.73
2023-02-12T17:13:08.916Z,14.40
2023-02-12T17:17:13.348Z,13.87
2023-02-12T17:21:22.796Z,15.10
2023-02-12T17:25:30.113Z,15.30
2023-02-12T17:29:33.237Z,14.70
2023-02-12T17:33:37.648Z,14.77
2023-02-12T17:37:40.875Z,14.10
2023-02-12T17:41:44.693Z,16.07
2023-02-12T17:45:47.742Z,16.03
2023-02-12T17:49:52.459Z,16.43
2023-02-12T17:53:55.526Z,14.67
2023-02-12T17:57:59.240Z,15.07
2023-02-12T18:02:02.774Z,14.70
2023-02-12T18:06:09.397Z,14.40
2023-02-12T18:10:12.793Z,14.40
2023-02-12T18:14:15.672Z,13.97
2023-02-12T18:18:19.587Z,14.53
2023-02-12T18:22:24.834Z,15.30
2023-02-12T18:26:27.970Z,17.93
2023-02-12T18:30:31.263Z,15.90
2023-02-12T18:34:35.538Z,18.13
2023-02-12T18:38:41.569Z,16.93
2023-02-12T18:42:46.191Z,17.00
2023-02-12T18:46:59.891Z,19.77
2023-02-12T18:51:23.382Z,21.23
2023-02-12T18:55:53.552Z,20.83
2023-02-12T19:00:22.994Z,19.47
2023-02-12T19:04:52.468Z,18.87
2023-02-12T19:09:10.327Z,19.27
2023-02-12T19:13:14.613Z,17.73
2023-02-12T19:17:18.632Z,18.53
2023-02-12T19:21:26.050Z,16.83
2023-02-12T19:25:42.790Z,17.93
2023-02-12T19:29:47.077Z,17.30
2023-02-12T19:33:51.397Z,18.43
2023-02-12T19:37:55.029Z,19.87
2023-02-12T19:41:58.050Z,20.77
2023-02-12T19:46:07.111Z,21.87
2023-02-12T19:50:15.960Z,28.97
2023-02-12T19:54:29.481Z,26.87
2023-02-12T19:58:45.958Z,30.23
2023-02-12T20:03:00.267Z,28.03
2023-02-12T20:07:04.129Z,34.23
2023-02-12T20:11:09.696Z,29.40
2023-02-12T20:15:12.728Z,28.43
2023-02-12T20:19:19.624Z,29.80
2023-02-12T20:23:23.297Z,27.90
2023-02-12T20:27:27.296Z,24.97
2023-02-12T20:31:33.817Z,27.77
2023-02-12T20:35:41.495Z,27.27
2023-02-12T20:39:45.925Z,30.10
2023-02-12T20:43:55.128Z,29.53
2023-02-12T20:48:04.772Z,28.10
2023-02-12T20:52:24.206Z,26.97
2023-02-12T20:56:36.836Z,28.77
2023-02-12T21:00:39.715Z,31.90
2023-02-12T21:04:43.422Z,31.23
2023-02-12T21:08:48.108Z,29.33
2023-02-12T21:12:55.147Z,30.77
2023-02-12T21:17:05.617Z,31.77
2023-02-12T21:21:12.238Z,34.67
2023-02-12T21:25:20.597Z,36.83
2023-02-12T21:29:26.475Z,34.50
2023-02-12T21:33:29.813Z,32.93
2023-02-12T21:37:33.139Z,31.07
2023-02-12T21:41:42.845Z,29.50
2023-02-12T21:46:15.367Z,32.07
2023-02-12T21:50:30.640Z,28.93
2023-02-12T21:54:34.308Z,27.87
2023-02-12T21:58:38.870Z,25.10
2023-02-12T22:02:42.447Z,24.60
2023-02-12T22:06:49.151Z,25.33
2023-02-12T22:10:52.062Z,25.50
2023-02-12T22:14:56.264Z,24.83
2023-02-12T22:19:01.758Z,25.97
2023-02-12T22:23:05.146Z,24.77
2023-02-12T22:27:09.577Z,25.60
2023-02-12T22:31:17.155Z,24.90
2023-02-12T22:35:21.552Z,23.10
2023-02-12T22:39:25.628Z,21.73
2023-02-12T22:43:51.042Z,21.10
2023-02-12T22:48:17.912Z,23.10
2023-02-12T22:52:20.987Z,22.77
2023-02-12T22:56:25.665Z,23.37
2023-02-12T23:00:29.423Z,23.07
2023-02-12T23:04:34.773Z,23.43
2023-02-12T23:08:38.370Z,21.33
2023-02-12T23:12:41.492Z,20.17
2023-02-12T23:16:44.600Z,22.00
2023-02-12T23:20:50.124Z,23.63
2023-02-12T23:24:53.298Z,20.83
2023-02-12T23:28:56.998Z,23.07
2023-02-12T23:33:00.483Z,21.83
2023-02-12T23:37:05.459Z,20.77
2023-02-12T23:41:08.431Z,20.43
2023-02-12T23:45:12.275Z,19.13
2023-02-12T23:49:15.562Z,18.97
2023-02-12T23:53:20.050Z,19.77
2023-02-12T23:57:23.206Z,20.20
